sensor_id;sensor_type;location;lat;lon;timestamp;pressure;altitude;pressure_sealevel;temperature;humidity
4326;BME280;58429;49.826;10.880;2023-04-06T00:00:30;98996;;;1.09;63.51
4326;BME280;58429;49.826;10.880;2023-04-06T00:01:30;98995;;;1.08;63.47
4326;BME280;58429;49.826;10.880;2023-04-06T00:02:30;99001;;;1.08;63.36
4326;BME280;58429;49.826;10.880;2023-04-06T00:03:30;98994;;;1.08;63.41
4326;BME280;58429;49.826;10.880;2023-04-06T00:04:30;98992;;;1.06;63.54
4326;BME280;58429;49.826;10.880;2023-04-06T00:05:30;98997;;;1.03;63.65
4326;BME280;58429;49.826;10.880;2023-04-06T00:06:30;98992;;;1.03;63.81
4326;BME280;58429;49.826;10.880;2023-04-06T00:07:30;98988;;;1;63.93
4326;BME280;58429;49.826;10.880;2023-04-06T00:08:30;98998;;;1.02;63.93
4326;BME280;58429;49.826;10.880;2023-04-06T00:09:30;98993;;;0.99;64
4326;BME280;58429;49.826;10.880;2023-04-06T00:10:30;98988;;;1;64.21
4326;BME280;58429;49.826;10.880;2023-04-06T00:11:30;98991;;;0.97;64.22
4326;BME280;58429;49.826;10.880;2023-04-06T00:12:30;98995;;;0.97;64.12
4326;BME280;58429;49.826;10.880;2023-04-06T00:13:30;98995;;;1;64.04
4326;BME280;58429;49.826;10.880;2023-04-06T00:14:30;98994;;;0.97;63.84
4326;BME280;58429;49.826;10.880;2023-04-06T00:15:30;98988;;;0.98;63.85
4326;BME280;58429;49.826;10.880;2023-04-06T00:16:30;98988;;;0.93;64.24
4326;BME280;58429;49.826;10.880;2023-04-06T00:17:30;98985;;;0.94;64.55
4326;BME280;58429;49.826;10.880;2023-04-06T00:18:30;98984;;;0.93;64.59
4326;BME280;58429;49.826;10.880;2023-04-06T00:19:30;98988;;;0.93;64.34
4326;BME280;58429;49.826;10.880;2023-04-06T00:20:30;98985;;;0.94;64.59
4326;BME280;58429;49.826;10.880;2023-04-06T00:21:30;98984;;;0.89;64.59
4326;BME280;58429;49.826;10.880;2023-04-06T00:22:30;98986;;;0.89;64.92
4326;BME280;58429;49.826;10.880;2023-04-06T00:23:30;98984;;;0.92;64.92
4326;BME280;58429;49.826;10.880;2023-04-06T00:24:30;98985;;;0.88;65.01
4326;BME280;58429;49.826;10.880;2023-04-06T00:25:30;98987;;;0.93;64.95
4326;BME280;58429;49.826;10.880;2023-04-06T00:26:30;98987;;;0.91;64.96
4326;BME280;58429;49.826;10.880;2023-04-06T00:27:30;98987;;;0.88;65.29
4326;BME280;58429;49.826;10.880;2023-04-06T00:28:30;98991;;;0.85;65.33
4326;BME280;58429;49.826;10.880;2023-04-06T00:29:30;98987;;;0.86;65.52
4326;BME280;58429;49.826;10.880;2023-04-06T00:30:30;98987;;;0.85;65.61
4326;BME280;58429;49.826;10.880;2023-04-06T00:31:30;98986;;;0.87;65.58
4326;BME280;58429;49.826;10.880;2023-04-06T00:32:30;98987;;;0.85;65.84
4326;BME280;58429;49.826;10.880;2023-04-06T00:33:30;98994;;;0.82;66.11
4326;BME280;58429;49.826;10.880;2023-04-06T00:34:30;98984;;;0.82;66.17
4326;BME280;58429;49.826;10.880;2023-04-06T00:35:30;98986;;;0.79;66.29
4326;BME280;58429;49.826;10.880;2023-04-06T00:36:30;98985;;;0.82;66.29
4326;BME280;58429;49.826;10.880;2023-04-06T00:37:30;98987;;;0.82;66.37
4326;BME280;58429;49.826;10.880;2023-04-06T00:38:30;98977;;;0.77;66.39
4326;BME280;58429;49.826;10.880;2023-04-06T00:39:30;98985;;;0.8;66.52
4326;BME280;58429;49.826;10.880;2023-04-06T00:40:30;98990;;;0.77;66.54
4326;BME280;58429;49.826;10.880;2023-04-06T00:41:30;98980;;;0.76;66.73
4326;BME280;58429;49.826;10.880;2023-04-06T00:42:30;98983;;;0.73;66.87
4326;BME280;58429;49.826;10.880;2023-04-06T00:43:30;98979;;;0.71;66.8
4326;BME280;58429;49.826;10.880;2023-04-06T00:44:30;98981;;;0.76;66.69
4326;BME280;58429;49.826;10.880;2023-04-06T00:45:30;98979;;;0.78;66.68
4326;BME280;58429;49.826;10.880;2023-04-06T00:46:30;98980;;;0.8;66.66
4326;BME280;58429;49.826;10.880;2023-04-06T00:47:30;98982;;;0.8;66.67
4326;BME280;58429;49.826;10.880;2023-04-06T00:48:30;98976;;;0.77;66.67
4326;BME280;58429;49.826;10.880;2023-04-06T00:49:30;98975;;;0.77;66.7
4326;BME280;58429;49.826;10.880;2023-04-06T00:50:30;98976;;;0.69;67.12
4326;BME280;58429;49.826;10.880;2023-04-06T00:51:30;98973;;;0.71;67.02
4326;BME280;58429;49.826;10.880;2023-04-06T00:52:30;98967;;;0.66;67.15
4326;BME280;58429;49.826;10.880;2023-04-06T00:53:30;98978;;;0.67;67.01
4326;BME280;58429;49.826;10.880;2023-04-06T00:54:30;98974;;;0.66;67.11
4326;BME280;58429;49.826;10.880;2023-04-06T00:55:30;98969;;;0.64;67.12
4326;BME280;58429;49.826;10.880;2023-04-06T00:56:30;98975;;;0.61;67.02
4326;BME280;58429;49.826;10.880;2023-04-06T00:57:30;98970;;;0.61;67.03
4326;BME280;58429;49.826;10.880;2023-04-06T00:58:30;98965;;;0.58;67.18
4326;BME280;58429;49.826;10.880;2023-04-06T00:59:30;98966;;;0.6;67.23
4326;BME280;58429;49.826;10.880;2023-04-06T01:00:30;98966;;;0.58;67.37
4326;BME280;58429;49.826;10.880;2023-04-06T01:01:30;98968;;;0.53;67.34
4326;BME280;58429;49.826;10.880;2023-04-06T01:02:30;98967;;;0.57;67.43
4326;BME280;58429;49.826;10.880;2023-04-06T01:03:30;98963;;;0.58;67.22
4326;BME280;58429;49.826;10.880;2023-04-06T01:04:30;98957;;;0.58;67.2
4326;BME280;58429;49.826;10.880;2023-04-06T01:05:30;98968;;;0.54;67.23
4326;BME280;58429;49.826;10.880;2023-04-06T01:06:30;98970;;;0.57;67.07
4326;BME280;58429;49.826;10.880;2023-04-06T01:07:30;98966;;;0.53;66.98
4326;BME280;58429;49.826;10.880;2023-04-06T01:08:30;98964;;;0.54;66.87
4326;BME280;58429;49.826;10.880;2023-04-06T01:09:30;98964;;;0.48;66.99
4326;BME280;58429;49.826;10.880;2023-04-06T01:10:30;98963;;;0.43;67.29
4326;BME280;58429;49.826;10.880;2023-04-06T01:11:30;98962;;;0.38;67.47
4326;BME280;58429;49.826;10.880;2023-04-06T01:12:30;98967;;;0.37;67.66
4326;BME280;58429;49.826;10.880;2023-04-06T01:13:30;98962;;;0.38;67.94
4326;BME280;58429;49.826;10.880;2023-04-06T01:14:30;98971;;;0.37;68.15
4326;BME280;58429;49.826;10.880;2023-04-06T01:15:30;98965;;;0.34;68.24
4326;BME280;58429;49.826;10.880;2023-04-06T01:16:30;98966;;;0.35;68.29
4326;BME280;58429;49.826;10.880;2023-04-06T01:17:30;98960;;;0.33;68.42
4326;BME280;58429;49.826;10.880;2023-04-06T01:18:30;98964;;;0.34;68.31
4326;BME280;58429;49.826;10.880;2023-04-06T01:19:30;98965;;;0.35;68.4
4326;BME280;58429;49.826;10.880;2023-04-06T01:20:30;98964;;;0.33;68.44
4326;BME280;58429;49.826;10.880;2023-04-06T01:21:30;98954;;;0.33;68.58
4326;BME280;58429;49.826;10.880;2023-04-06T01:22:30;98960;;;0.31;68.84
4326;BME280;58429;49.826;10.880;2023-04-06T01:23:30;98964;;;0.31;68.82
4326;BME280;58429;49.826;10.880;2023-04-06T01:24:30;98961;;;0.3;68.88
4326;BME280;58429;49.826;10.880;2023-04-06T01:25:30;98962;;;0.32;68.78
4326;BME280;58429;49.826;10.880;2023-04-06T01:26:31;98954;;;0.29;68.91
4326;BME280;58429;49.826;10.880;2023-04-06T01:27:30;98955;;;0.27;68.96
4326;BME280;58429;49.826;10.880;2023-04-06T01:28:30;98959;;;0.27;69.01
4326;BME280;58429;49.826;10.880;2023-04-06T01:29:30;98959;;;0.26;69.08
4326;BME280;58429;49.826;10.880;2023-04-06T01:30:30;98958;;;0.28;69.06
4326;BME280;58429;49.826;10.880;2023-04-06T01:31:30;98958;;;0.29;68.95
4326;BME280;58429;49.826;10.880;2023-04-06T01:32:30;98958;;;0.25;69.09
4326;BME280;58429;49.826;10.880;2023-04-06T01:33:30;98960;;;0.25;69.19
4326;BME280;58429;49.826;10.880;2023-04-06T01:34:30;98960;;;0.21;69.39
4326;BME280;58429;49.826;10.880;2023-04-06T01:35:30;98952;;;0.23;69.45
4326;BME280;58429;49.826;10.880;2023-04-06T01:36:30;98953;;;0.2;69.46
4326;BME280;58429;49.826;10.880;2023-04-06T01:37:30;98950;;;0.18;69.53
4326;BME280;58429;49.826;10.880;2023-04-06T01:38:30;98952;;;0.16;69.68
4326;BME280;58429;49.826;10.880;2023-04-06T01:39:30;98944;;;0.2;69.52
4326;BME280;58429;49.826;10.880;2023-04-06T01:40:30;98946;;;0.19;69.37
4326;BME280;58429;49.826;10.880;2023-04-06T01:41:30;98946;;;0.17;69.42
4326;BME280;58429;49.826;10.880;2023-04-06T01:42:30;98947;;;0.17;69.33
4326;BME280;58429;49.826;10.880;2023-04-06T01:43:30;98945;;;0.15;69.2
4326;BME280;58429;49.826;10.880;2023-04-06T01:44:30;98945;;;0.13;68.98
4326;BME280;58429;49.826;10.880;2023-04-06T01:45:30;98952;;;0.11;68.87
4326;BME280;58429;49.826;10.880;2023-04-06T01:46:30;98946;;;0.12;68.8
4326;BME280;58429;49.826;10.880;2023-04-06T01:47:30;98949;;;0.09;68.83
4326;BME280;58429;49.826;10.880;2023-04-06T01:48:31;98950;;;0.09;68.86
4326;BME280;58429;49.826;10.880;2023-04-06T01:49:30;98941;;;0.08;69
4326;BME280;58429;49.826;10.880;2023-04-06T01:50:30;98946;;;0.03;68.86
4326;BME280;58429;49.826;10.880;2023-04-06T01:51:30;98946;;;0.03;68.87
4326;BME280;58429;49.826;10.880;2023-04-06T01:52:30;98938;;;0.02;68.7
4326;BME280;58429;49.826;10.880;2023-04-06T01:53:30;98945;;;0.05;68.68
4326;BME280;58429;49.826;10.880;2023-04-06T01:54:30;98940;;;0.05;68.75
4326;BME280;58429;49.826;10.880;2023-04-06T01:55:30;98942;;;0.04;68.81
4326;BME280;58429;49.826;10.880;2023-04-06T01:56:30;98947;;;0.05;68.81
4326;BME280;58429;49.826;10.880;2023-04-06T01:57:30;98941;;;0.02;68.86
4326;BME280;58429;49.826;10.880;2023-04-06T01:58:30;98942;;;0.03;69.33
4326;BME280;58429;49.826;10.880;2023-04-06T01:59:30;98939;;;0.02;69.2
4326;BME280;58429;49.826;10.880;2023-04-06T02:00:30;98944;;;0.02;69.19
4326;BME280;58429;49.826;10.880;2023-04-06T02:01:30;98940;;;-0.01;69.26
4326;BME280;58429;49.826;10.880;2023-04-06T02:02:30;98936;;;-0.01;69.31
4326;BME280;58429;49.826;10.880;2023-04-06T02:03:30;98938;;;0.01;69.2
4326;BME280;58429;49.826;10.880;2023-04-06T02:04:30;98938;;;-0.04;69.31
4326;BME280;58429;49.826;10.880;2023-04-06T02:05:31;98939;;;-0.08;69.47
4326;BME280;58429;49.826;10.880;2023-04-06T02:06:30;98936;;;-0.05;69.52
4326;BME280;58429;49.826;10.880;2023-04-06T02:07:30;98938;;;-0.12;69.6
4326;BME280;58429;49.826;10.880;2023-04-06T02:08:30;98942;;;-0.1;69.67
4326;BME280;58429;49.826;10.880;2023-04-06T02:09:30;98943;;;-0.14;69.8
4326;BME280;58429;49.826;10.880;2023-04-06T02:10:30;98938;;;-0.16;69.78
4326;BME280;58429;49.826;10.880;2023-04-06T02:11:30;98935;;;-0.19;69.61
4326;BME280;58429;49.826;10.880;2023-04-06T02:12:30;98937;;;-0.16;69.43
4326;BME280;58429;49.826;10.880;2023-04-06T02:13:30;98937;;;-0.17;69.4
4326;BME280;58429;49.826;10.880;2023-04-06T02:14:30;98935;;;-0.15;69.21
4326;BME280;58429;49.826;10.880;2023-04-06T02:15:30;98933;;;-0.15;69.15
4326;BME280;58429;49.826;10.880;2023-04-06T02:16:30;98940;;;-0.17;69.1
4326;BME280;58429;49.826;10.880;2023-04-06T02:17:30;98933;;;-0.19;68.95
4326;BME280;58429;49.826;10.880;2023-04-06T02:18:30;98931;;;-0.18;68.86
4326;BME280;58429;49.826;10.880;2023-04-06T02:19:30;98938;;;-0.19;68.73
4326;BME280;58429;49.826;10.880;2023-04-06T02:20:30;98944;;;-0.2;68.68
4326;BME280;58429;49.826;10.880;2023-04-06T02:21:30;98939;;;-0.24;68.62
4326;BME280;58429;49.826;10.880;2023-04-06T02:22:30;98937;;;-0.24;68.62
4326;BME280;58429;49.826;10.880;2023-04-06T02:23:30;98944;;;-0.24;68.61
4326;BME280;58429;49.826;10.880;2023-04-06T02:24:30;98934;;;-0.26;68.57
4326;BME280;58429;49.826;10.880;2023-04-06T02:25:30;98940;;;-0.25;68.48
4326;BME280;58429;49.826;10.880;2023-04-06T02:26:30;98930;;;-0.28;68.63
4326;BME280;58429;49.826;10.880;2023-04-06T02:27:30;98942;;;-0.27;68.55
4326;BME280;58429;49.826;10.880;2023-04-06T02:28:30;98939;;;-0.27;68.45
4326;BME280;58429;49.826;10.880;2023-04-06T02:29:30;98936;;;-0.3;68.49
4326;BME280;58429;49.826;10.880;2023-04-06T02:30:30;98942;;;-0.34;68.73
4326;BME280;58429;49.826;10.880;2023-04-06T02:31:30;98933;;;-0.32;68.75
4326;BME280;58429;49.826;10.880;2023-04-06T02:32:30;98937;;;-0.32;68.81
4326;BME280;58429;49.826;10.880;2023-04-06T02:33:30;98934;;;-0.34;68.92
4326;BME280;58429;49.826;10.880;2023-04-06T02:34:30;98937;;;-0.35;68.98
4326;BME280;58429;49.826;10.880;2023-04-06T02:35:30;98935;;;-0.34;69.05
4326;BME280;58429;49.826;10.880;2023-04-06T02:36:30;98940;;;-0.32;69.08
4326;BME280;58429;49.826;10.880;2023-04-06T02:37:30;98936;;;-0.32;69.02
4326;BME280;58429;49.826;10.880;2023-04-06T02:38:30;98932;;;-0.37;69.15
4326;BME280;58429;49.826;10.880;2023-04-06T02:39:30;98936;;;-0.39;69.39
4326;BME280;58429;49.826;10.880;2023-04-06T02:40:30;98936;;;-0.37;69.35
4326;BME280;58429;49.826;10.880;2023-04-06T02:41:30;98932;;;-0.4;69.5
4326;BME280;58429;49.826;10.880;2023-04-06T02:42:30;98933;;;-0.4;69.61
4326;BME280;58429;49.826;10.880;2023-04-06T02:43:30;98933;;;-0.44;69.63
4326;BME280;58429;49.826;10.880;2023-04-06T02:44:30;98935;;;-0.42;69.59
4326;BME280;58429;49.826;10.880;2023-04-06T02:45:30;98931;;;-0.44;69.54
4326;BME280;58429;49.826;10.880;2023-04-06T02:46:30;98930;;;-0.41;69.39
4326;BME280;58429;49.826;10.880;2023-04-06T02:47:30;98936;;;-0.48;69.22
4326;BME280;58429;49.826;10.880;2023-04-06T02:48:30;98933;;;-0.46;69.2
4326;BME280;58429;49.826;10.880;2023-04-06T02:49:30;98930;;;-0.48;69.33
4326;BME280;58429;49.826;10.880;2023-04-06T02:50:30;98936;;;-0.54;69.37
4326;BME280;58429;49.826;10.880;2023-04-06T02:51:30;98933;;;-0.49;69.36
4326;BME280;58429;49.826;10.880;2023-04-06T02:52:30;98937;;;-0.52;69.36
4326;BME280;58429;49.826;10.880;2023-04-06T02:53:30;98934;;;-0.53;69.43
4326;BME280;58429;49.826;10.880;2023-04-06T02:54:30;98928;;;-0.54;69.62
4326;BME280;58429;49.826;10.880;2023-04-06T02:55:30;98933;;;-0.57;69.63
4326;BME280;58429;49.826;10.880;2023-04-06T02:56:30;98931;;;-0.57;69.46
4326;BME280;58429;49.826;10.880;2023-04-06T02:57:30;98922;;;-0.58;69.43
4326;BME280;58429;49.826;10.880;2023-04-06T02:58:30;98934;;;-0.59;69.42
4326;BME280;58429;49.826;10.880;2023-04-06T02:59:30;98933;;;-0.55;69.33
4326;BME280;58429;49.826;10.880;2023-04-06T03:00:30;98936;;;-0.58;69.3
4326;BME280;58429;49.826;10.880;2023-04-06T03:01:30;98936;;;-0.57;69.31
4326;BME280;58429;49.826;10.880;2023-04-06T03:02:30;98942;;;-0.58;69.32
4326;BME280;58429;49.826;10.880;2023-04-06T03:03:30;98935;;;-0.61;69.32
4326;BME280;58429;49.826;10.880;2023-04-06T03:04:30;98936;;;-0.56;69.32
4326;BME280;58429;49.826;10.880;2023-04-06T03:05:30;98939;;;-0.57;69.32
4326;BME280;58429;49.826;10.880;2023-04-06T03:06:30;98940;;;-0.62;69.27
4326;BME280;58429;49.826;10.880;2023-04-06T03:07:30;98942;;;-0.6;69.22
4326;BME280;58429;49.826;10.880;2023-04-06T03:08:30;98936;;;-0.63;69.33
4326;BME280;58429;49.826;10.880;2023-04-06T03:09:30;98936;;;-0.62;69.39
4326;BME280;58429;49.826;10.880;2023-04-06T03:10:30;98939;;;-0.62;69.51
4326;BME280;58429;49.826;10.880;2023-04-06T03:11:30;98935;;;-0.65;69.56
4326;BME280;58429;49.826;10.880;2023-04-06T03:12:30;98937;;;-0.65;69.53
4326;BME280;58429;49.826;10.880;2023-04-06T03:13:30;98932;;;-0.64;69.58
4326;BME280;58429;49.826;10.880;2023-04-06T03:14:30;98937;;;-0.65;69.81
4326;BME280;58429;49.826;10.880;2023-04-06T03:15:30;98934;;;-0.66;69.78
4326;BME280;58429;49.826;10.880;2023-04-06T03:16:30;98938;;;-0.65;69.67
4326;BME280;58429;49.826;10.880;2023-04-06T03:17:30;98936;;;-0.66;69.72
4326;BME280;58429;49.826;10.880;2023-04-06T03:18:31;98943;;;-0.68;69.6
4326;BME280;58429;49.826;10.880;2023-04-06T03:19:30;98932;;;-0.65;69.49
4326;BME280;58429;49.826;10.880;2023-04-06T03:20:30;98931;;;-0.73;69.49
4326;BME280;58429;49.826;10.880;2023-04-06T03:21:30;98934;;;-0.69;69.46
4326;BME280;58429;49.826;10.880;2023-04-06T03:22:30;98933;;;-0.73;69.51
4326;BME280;58429;49.826;10.880;2023-04-06T03:23:30;98936;;;-0.8;69.44
4326;BME280;58429;49.826;10.880;2023-04-06T03:24:30;98932;;;-0.79;69.53
4326;BME280;58429;49.826;10.880;2023-04-06T03:25:30;98930;;;-0.8;69.6
4326;BME280;58429;49.826;10.880;2023-04-06T03:26:30;98938;;;-0.82;69.58
4326;BME280;58429;49.826;10.880;2023-04-06T03:27:30;98933;;;-0.79;69.63
4326;BME280;58429;49.826;10.880;2023-04-06T03:28:30;98933;;;-0.83;69.58
4326;BME280;58429;49.826;10.880;2023-04-06T03:29:30;98934;;;-0.83;69.63
4326;BME280;58429;49.826;10.880;2023-04-06T03:30:30;98938;;;-0.89;69.59
4326;BME280;58429;49.826;10.880;2023-04-06T03:31:30;98935;;;-0.91;69.58
4326;BME280;58429;49.826;10.880;2023-04-06T03:32:30;98933;;;-0.91;69.59
4326;BME280;58429;49.826;10.880;2023-04-06T03:33:30;98938;;;-0.88;69.56
4326;BME280;58429;49.826;10.880;2023-04-06T03:34:30;98938;;;-0.92;69.47
4326;BME280;58429;49.826;10.880;2023-04-06T03:35:30;98938;;;-0.91;69.45
4326;BME280;58429;49.826;10.880;2023-04-06T03:36:30;98934;;;-0.91;69.4
4326;BME280;58429;49.826;10.880;2023-04-06T03:37:30;98935;;;-0.93;69.33
4326;BME280;58429;49.826;10.880;2023-04-06T03:38:30;98938;;;-0.91;69.37
4326;BME280;58429;49.826;10.880;2023-04-06T03:39:30;98936;;;-0.92;69.39
4326;BME280;58429;49.826;10.880;2023-04-06T03:40:30;98941;;;-0.96;69.34
4326;BME280;58429;49.826;10.880;2023-04-06T03:41:30;98936;;;-0.94;69.31
4326;BME280;58429;49.826;10.880;2023-04-06T03:42:30;98935;;;-0.96;69.27
4326;BME280;58429;49.826;10.880;2023-04-06T03:43:30;98936;;;-0.95;69.23
4326;BME280;58429;49.826;10.880;2023-04-06T03:44:30;98927;;;-0.99;69.22
4326;BME280;58429;49.826;10.880;2023-04-06T03:45:30;98935;;;-0.96;69.28
4326;BME280;58429;49.826;10.880;2023-04-06T03:46:30;98937;;;-1.01;69.42
4326;BME280;58429;49.826;10.880;2023-04-06T03:47:30;98932;;;-1;69.39
4326;BME280;58429;49.826;10.880;2023-04-06T03:48:30;98937;;;-1.05;69.51
4326;BME280;58429;49.826;10.880;2023-04-06T03:49:30;98940;;;-1.05;69.52
4326;BME280;58429;49.826;10.880;2023-04-06T03:50:30;98936;;;-1.09;69.62
4326;BME280;58429;49.826;10.880;2023-04-06T03:51:30;98936;;;-1.07;69.57
4326;BME280;58429;49.826;10.880;2023-04-06T03:52:30;98942;;;-1.08;69.47
4326;BME280;58429;49.826;10.880;2023-04-06T03:53:30;98941;;;-1.09;69.4
4326;BME280;58429;49.826;10.880;2023-04-06T03:54:30;98943;;;-1.1;69.51
4326;BME280;58429;49.826;10.880;2023-04-06T03:55:30;98941;;;-1.11;69.56
4326;BME280;58429;49.826;10.880;2023-04-06T03:56:30;98940;;;-1.14;69.62
4326;BME280;58429;49.826;10.880;2023-04-06T03:57:30;98937;;;-1.16;69.71
4326;BME280;58429;49.826;10.880;2023-04-06T03:58:30;98947;;;-1.18;69.83
4326;BME280;58429;49.826;10.880;2023-04-06T03:59:30;98940;;;-1.17;70.01
4326;BME280;58429;49.826;10.880;2023-04-06T04:00:30;98942;;;-1.2;70.28
4326;BME280;58429;49.826;10.880;2023-04-06T04:01:30;98943;;;-1.22;70.2
4326;BME280;58429;49.826;10.880;2023-04-06T04:02:31;98947;;;-1.2;70.17
4326;BME280;58429;49.826;10.880;2023-04-06T04:03:30;98945;;;-1.2;70.19
4326;BME280;58429;49.826;10.880;2023-04-06T04:04:30;98956;;;-1.21;70.13
4326;BME280;58429;49.826;10.880;2023-04-06T04:05:30;98952;;;-1.24;70.25
4326;BME280;58429;49.826;10.880;2023-04-06T04:06:30;98953;;;-1.23;70.2
4326;BME280;58429;49.826;10.880;2023-04-06T04:07:30;98955;;;-1.28;70.34
4326;BME280;58429;49.826;10.880;2023-04-06T04:08:30;98953;;;-1.25;70.35
4326;BME280;58429;49.826;10.880;2023-04-06T04:09:30;98951;;;-1.26;70.35
4326;BME280;58429;49.826;10.880;2023-04-06T04:10:30;98951;;;-1.24;70.34
4326;BME280;58429;49.826;10.880;2023-04-06T04:11:30;98954;;;-1.25;70.34
4326;BME280;58429;49.826;10.880;2023-04-06T04:12:30;98950;;;-1.24;70.35
4326;BME280;58429;49.826;10.880;2023-04-06T04:13:30;98958;;;-1.27;70.37
4326;BME280;58429;49.826;10.880;2023-04-06T04:14:30;98955;;;-1.26;70.4
4326;BME280;58429;49.826;10.880;2023-04-06T04:15:30;98957;;;-1.26;70.41
4326;BME280;58429;49.826;10.880;2023-04-06T04:16:30;98949;;;-1.26;70.28
4326;BME280;58429;49.826;10.880;2023-04-06T04:17:30;98947;;;-1.26;70.32
4326;BME280;58429;49.826;10.880;2023-04-06T04:18:31;98947;;;-1.3;70.48
4326;BME280;58429;49.826;10.880;2023-04-06T04:19:30;98950;;;-1.26;70.56
4326;BME280;58429;49.826;10.880;2023-04-06T04:20:30;98955;;;-1.3;70.58
4326;BME280;58429;49.826;10.880;2023-04-06T04:21:31;98951;;;-1.3;70.49
4326;BME280;58429;49.826;10.880;2023-04-06T04:22:30;98946;;;-1.29;70.53
4326;BME280;58429;49.826;10.880;2023-04-06T04:23:30;98951;;;-1.31;70.57
4326;BME280;58429;49.826;10.880;2023-04-06T04:24:30;98951;;;-1.35;70.5
4326;BME280;58429;49.826;10.880;2023-04-06T04:25:30;98948;;;-1.36;70.5
4326;BME280;58429;49.826;10.880;2023-04-06T04:26:30;98949;;;-1.36;70.51
4326;BME280;58429;49.826;10.880;2023-04-06T04:27:30;98952;;;-1.41;70.59
4326;BME280;58429;49.826;10.880;2023-04-06T04:28:30;98952;;;-1.39;70.59
4326;BME280;58429;49.826;10.880;2023-04-06T04:29:30;98953;;;-1.39;70.61
4326;BME280;58429;49.826;10.880;2023-04-06T04:30:30;98951;;;-1.4;70.57
4326;BME280;58429;49.826;10.880;2023-04-06T04:31:30;98952;;;-1.41;70.56
4326;BME280;58429;49.826;10.880;2023-04-06T04:32:30;98954;;;-1.42;70.53
4326;BME280;58429;49.826;10.880;2023-04-06T04:33:30;98957;;;-1.42;70.53
4326;BME280;58429;49.826;10.880;2023-04-06T04:34:31;98953;;;-1.4;70.54
4326;BME280;58429;49.826;10.880;2023-04-06T04:35:30;98954;;;-1.43;70.72
4326;BME280;58429;49.826;10.880;2023-04-06T04:36:30;98955;;;-1.43;70.72
4326;BME280;58429;49.826;10.880;2023-04-06T04:37:30;98956;;;-1.44;70.75
4326;BME280;58429;49.826;10.880;2023-04-06T04:38:30;98950;;;-1.43;70.74
4326;BME280;58429;49.826;10.880;2023-04-06T04:39:30;98950;;;-1.43;70.83
4326;BME280;58429;49.826;10.880;2023-04-06T04:40:30;98951;;;-1.43;70.84
4326;BME280;58429;49.826;10.880;2023-04-06T04:41:30;98950;;;-1.43;70.89
4326;BME280;58429;49.826;10.880;2023-04-06T04:42:30;98959;;;-1.45;70.92
4326;BME280;58429;49.826;10.880;2023-04-06T04:43:30;98954;;;-1.45;71.07
4326;BME280;58429;49.826;10.880;2023-04-06T04:44:30;98954;;;-1.47;71.27
4326;BME280;58429;49.826;10.880;2023-04-06T04:45:30;98961;;;-1.45;71.4
4326;BME280;58429;49.826;10.880;2023-04-06T04:46:30;98958;;;-1.41;71.43
4326;BME280;58429;49.826;10.880;2023-04-06T04:47:30;98963;;;-1.45;71.47
4326;BME280;58429;49.826;10.880;2023-04-06T04:48:30;98964;;;-1.45;71.42
4326;BME280;58429;49.826;10.880;2023-04-06T04:49:30;98961;;;-1.41;71.4
4326;BME280;58429;49.826;10.880;2023-04-06T04:50:30;98963;;;-1.47;71.52
4326;BME280;58429;49.826;10.880;2023-04-06T04:51:30;98961;;;-1.49;71.68
4326;BME280;58429;49.826;10.880;2023-04-06T04:52:30;98964;;;-1.52;71.89
4326;BME280;58429;49.826;10.880;2023-04-06T04:53:30;98967;;;-1.53;72.23
4326;BME280;58429;49.826;10.880;2023-04-06T04:54:30;98966;;;-1.5;72.48
4326;BME280;58429;49.826;10.880;2023-04-06T04:55:30;98969;;;-1.53;72.81
4326;BME280;58429;49.826;10.880;2023-04-06T04:56:30;98966;;;-1.53;72.85
4326;BME280;58429;49.826;10.880;2023-04-06T04:57:30;98968;;;-1.52;73.21
4326;BME280;58429;49.826;10.880;2023-04-06T04:58:30;98972;;;-1.54;73.31
4326;BME280;58429;49.826;10.880;2023-04-06T04:59:30;98972;;;-1.54;73.29
4326;BME280;58429;49.826;10.880;2023-04-06T05:00:30;98974;;;-1.57;73.4
4326;BME280;58429;49.826;10.880;2023-04-06T05:01:30;98973;;;-1.58;73.87
4326;BME280;58429;49.826;10.880;2023-04-06T05:02:30;98973;;;-1.59;74.22
4326;BME280;58429;49.826;10.880;2023-04-06T05:03:31;98978;;;-1.62;74.32
4326;BME280;58429;49.826;10.880;2023-04-06T05:04:30;98976;;;-1.6;74.4
4326;BME280;58429;49.826;10.880;2023-04-06T05:05:30;98978;;;-1.63;74.55
4326;BME280;58429;49.826;10.880;2023-04-06T05:06:30;98974;;;-1.64;74.75
4326;BME280;58429;49.826;10.880;2023-04-06T05:07:30;98967;;;-1.63;75.08
4326;BME280;58429;49.826;10.880;2023-04-06T05:08:30;98976;;;-1.66;75.47
4326;BME280;58429;49.826;10.880;2023-04-06T05:09:30;98975;;;-1.69;75.76
4326;BME280;58429;49.826;10.880;2023-04-06T05:10:30;98973;;;-1.65;75.52
4326;BME280;58429;49.826;10.880;2023-04-06T05:11:30;98973;;;-1.64;75.35
4326;BME280;58429;49.826;10.880;2023-04-06T05:12:30;98966;;;-1.67;75.35
4326;BME280;58429;49.826;10.880;2023-04-06T05:13:30;98973;;;-1.64;75.35
4326;BME280;58429;49.826;10.880;2023-04-06T05:14:30;98972;;;-1.64;75.43
4326;BME280;58429;49.826;10.880;2023-04-06T05:15:30;98972;;;-1.66;75.35
4326;BME280;58429;49.826;10.880;2023-04-06T05:16:30;98969;;;-1.64;75.36
4326;BME280;58429;49.826;10.880;2023-04-06T05:17:30;98969;;;-1.63;75.33
4326;BME280;58429;49.826;10.880;2023-04-06T05:18:30;98975;;;-1.63;75.31
4326;BME280;58429;49.826;10.880;2023-04-06T05:19:30;98975;;;-1.64;75.36
4326;BME280;58429;49.826;10.880;2023-04-06T05:20:30;98969;;;-1.62;75.3
4326;BME280;58429;49.826;10.880;2023-04-06T05:21:30;98968;;;-1.62;75.32
4326;BME280;58429;49.826;10.880;2023-04-06T05:22:30;98970;;;-1.63;75.15
4326;BME280;58429;49.826;10.880;2023-04-06T05:23:30;98970;;;-1.59;75
4326;BME280;58429;49.826;10.880;2023-04-06T05:24:30;98970;;;-1.55;74.93
4326;BME280;58429;49.826;10.880;2023-04-06T05:25:30;98968;;;-1.52;74.96
4326;BME280;58429;49.826;10.880;2023-04-06T05:26:30;98973;;;-1.51;74.82
4326;BME280;58429;49.826;10.880;2023-04-06T05:27:30;98968;;;-1.47;74.76
4326;BME280;58429;49.826;10.880;2023-04-06T05:28:30;98968;;;-1.47;74.65
4326;BME280;58429;49.826;10.880;2023-04-06T05:29:30;98971;;;-1.47;74.68
4326;BME280;58429;49.826;10.880;2023-04-06T05:30:30;98974;;;-1.48;74.66
4326;BME280;58429;49.826;10.880;2023-04-06T05:31:30;98977;;;-1.45;74.71
4326;BME280;58429;49.826;10.880;2023-04-06T05:32:30;98974;;;-1.47;74.77
4326;BME280;58429;49.826;10.880;2023-04-06T05:33:30;98975;;;-1.45;74.71